createdAt,value
2023-04-08T00:00:38.539Z,11.50
2023-04-08T00:03:08.244Z,12.37
2023-04-08T00:05:36.586Z,12.13
2023-04-08T00:08:05.304Z,10.53
2023-04-08T00:10:33.457Z,12.60
2023-04-08T00:13:02.982Z,11.80
2023-04-08T00:15:52.453Z,11.73
2023-04-08T00:18:24.974Z,12.83
2023-04-08T00:20:54.300Z,12.90
2023-04-08T00:23:24.804Z,12.90
2023-04-08T00:25:52.885Z,13.23
2023-04-08T00:28:21.590Z,13.10
2023-04-08T00:30:52.567Z,13.77
2023-04-08T00:33:22.266Z,13.03
2023-04-08T00:35:51.152Z,14.90
2023-04-08T00:38:19.370Z,13.30
2023-04-08T00:40:49.015Z,14.17
2023-04-08T00:43:21.334Z,13.83
2023-04-08T00:45:49.856Z,15.43
2023-04-08T00:48:20.570Z,15.03
2023-04-08T00:50:51.724Z,14.83
2023-04-08T00:53:22.207Z,15.07
2023-04-08T00:55:51.766Z,15.47
2023-04-08T00:58:20.165Z,15.80
2023-04-08T01:00:56.721Z,16.00
2023-04-08T01:03:31.847Z,16.57
2023-04-08T01:06:11.090Z,16.23
2023-04-08T01:08:42.840Z,16.47
2023-04-08T01:11:13.383Z,17.17
2023-04-08T01:13:46.294Z,16.87
2023-04-08T01:16:17.723Z,17.43
2023-04-08T01:18:49.925Z,17.90
2023-04-08T01:21:23.245Z,17.87
2023-04-08T01:24:03.198Z,16.37
2023-04-08T01:26:33.082Z,16.63
2023-04-08T01:29:03.098Z,16.27
2023-04-08T01:31:32.930Z,16.67
2023-04-08T01:34:02.965Z,16.47
2023-04-08T01:36:33.787Z,17.20
2023-04-08T01:39:03.191Z,16.37
2023-04-08T01:41:35.271Z,16.90
2023-04-08T01:44:05.172Z,17.43
2023-04-08T01:46:34.421Z,17.60
2023-04-08T01:49:03.390Z,18.17
2023-04-08T01:51:33.217Z,16.40
2023-04-08T01:54:01.441Z,16.97
2023-04-08T01:56:34.232Z,17.27
2023-04-08T01:59:03.868Z,18.00
2023-04-08T02:01:35.373Z,18.43
2023-04-08T02:04:05.493Z,19.73
2023-04-08T02:06:35.141Z,19.83
2023-04-08T02:09:04.212Z,19.47
2023-04-08T02:11:38.662Z,19.17
2023-04-08T02:14:27.557Z,19.33
2023-04-08T02:17:04.552Z,19.27
2023-04-08T02:19:41.813Z,19.03
2023-04-08T02:22:18.899Z,19.77
2023-04-08T02:24:49.248Z,19.80
2023-04-08T02:27:23.537Z,19.43
2023-04-08T02:29:53.525Z,19.30
2023-04-08T02:32:22.921Z,19.10
2023-04-08T02:34:52.181Z,18.40
2023-04-08T02:37:20.562Z,19.67
2023-04-08T02:39:55.679Z,19.83
2023-04-08T02:42:25.281Z,20.17
2023-04-08T02:44:53.974Z,20.27
2023-04-08T02:47:22.132Z,21.23
2023-04-08T02:49:53.260Z,20.70
2023-04-08T02:52:22.567Z,20.10
2023-04-08T02:55:11.662Z,19.60
2023-04-08T02:57:43.703Z,22.17
2023-04-08T03:00:13.100Z,20.33
2023-04-08T03:02:41.532Z,20.37
2023-04-08T03:05:10.705Z,21.03
2023-04-08T03:07:39.670Z,20.90
2023-04-08T03:10:09.403Z,21.03
2023-04-08T03:12:38.258Z,21.93
2023-04-08T03:15:08.898Z,20.50
2023-04-08T03:17:36.972Z,21.20
2023-04-08T03:20:06.098Z,21.77
2023-04-08T03:22:35.045Z,21.23
2023-04-08T03:25:05.905Z,21.83
2023-04-08T03:27:34.257Z,20.90
2023-04-08T03:30:02.333Z,21.30
2023-04-08T03:32:34.729Z,20.53
2023-04-08T03:35:22.806Z,21.77
2023-04-08T03:37:51.477Z,21.80
2023-04-08T03:40:19.915Z,21.63
2023-04-08T03:42:48.311Z,21.30
2023-04-08T03:45:16.732Z,20.70
2023-04-08T03:47:47.350Z,21.83
2023-04-08T03:50:17.976Z,21.03
2023-04-08T03:52:46.279Z,21.77
2023-04-08T03:55:14.715Z,21.63
2023-04-08T03:57:42.857Z,20.97
2023-04-08T04:00:11.998Z,21.07
2023-04-08T04:02:40.500Z,21.00
2023-04-08T04:05:10.734Z,22.93
2023-04-08T04:07:38.850Z,21.37
2023-04-08T04:10:07.955Z,21.57
2023-04-08T04:12:36.117Z,22.17
2023-04-08T04:15:04.412Z,21.50
2023-04-08T04:17:35.798Z,21.80
2023-04-08T04:20:06.388Z,21.83
2023-04-08T04:22:35.952Z,21.73
2023-04-08T04:25:04.102Z,20.80
2023-04-08T04:27:32.690Z,23.30
2023-04-08T04:30:04.777Z,22.23
2023-04-08T04:32:33.397Z,21.70
2023-04-08T04:35:21.600Z,19.87
2023-04-08T04:37:51.896Z,21.57
2023-04-08T04:40:20.289Z,21.37
2023-04-08T04:43:08.514Z,22.10
2023-04-08T04:45:36.584Z,22.40
2023-04-08T04:48:06.176Z,23.27
2023-04-08T04:50:35.597Z,22.07
2023-04-08T04:53:05.374Z,21.90
2023-04-08T04:55:33.475Z,23.13
2023-04-08T04:58:06.499Z,22.70
2023-04-08T05:00:35.282Z,23.50
2023-04-08T05:03:03.777Z,23.13
2023-04-08T05:05:32.365Z,23.57
2023-04-08T05:08:03.082Z,24.63
2023-04-08T05:10:33.204Z,22.40
2023-04-08T05:13:03.579Z,23.20
2023-04-08T05:15:34.498Z,23.47
2023-04-08T05:18:22.510Z,23.33
2023-04-08T05:20:50.749Z,22.93
2023-04-08T05:23:19.094Z,23.53
2023-04-08T05:25:48.455Z,24.37
2023-04-08T05:28:18.015Z,22.60
2023-04-08T05:30:50.599Z,24.90
2023-04-08T05:33:18.650Z,24.13
2023-04-08T05:35:47.258Z,22.77
2023-04-08T05:38:15.628Z,22.47
2023-04-08T05:40:43.582Z,23.87
2023-04-08T05:43:13.115Z,23.10
2023-04-08T05:45:41.372Z,24.17
2023-04-08T05:48:09.332Z,24.90
2023-04-08T05:50:37.399Z,24.40
2023-04-08T05:53:05.470Z,26.17
2023-04-08T05:55:33.816Z,24.20
2023-04-08T05:58:01.891Z,26.30
2023-04-08T06:00:31.422Z,24.13
2023-04-08T06:02:59.598Z,21.87
2023-04-08T06:05:27.836Z,23.23
2023-04-08T06:07:56.009Z,22.20
2023-04-08T06:10:24.300Z,23.87
2023-04-08T06:12:52.284Z,23.57
2023-04-08T06:15:21.258Z,23.17
2023-04-08T06:17:50.912Z,21.47
2023-04-08T06:20:19.030Z,22.40
2023-04-08T06:22:47.164Z,23.30
2023-04-08T06:25:15.186Z,22.17
2023-04-08T06:27:43.194Z,22.77
2023-04-08T06:30:11.821Z,22.93
2023-04-08T06:32:39.970Z,22.73
2023-04-08T06:35:10.044Z,22.73
2023-04-08T06:37:38.801Z,23.77
2023-04-08T06:40:08.344Z,23.50
2023-04-08T06:42:38.446Z,22.90
2023-04-08T06:45:07.731Z,23.33
2023-04-08T06:47:35.774Z,22.27
2023-04-08T06:50:03.808Z,23.13
2023-04-08T06:52:33.184Z,21.30
2023-04-08T06:55:01.222Z,22.77
2023-04-08T06:57:29.161Z,21.77
2023-04-08T06:59:57.441Z,23.77
2023-04-08T07:02:25.576Z,23.07
2023-04-08T07:04:53.626Z,23.83
2023-04-08T07:07:21.964Z,23.03
2023-04-08T07:09:51.450Z,21.33
2023-04-08T07:12:19.567Z,21.07
2023-04-08T07:14:47.685Z,22.90
2023-04-08T07:17:16.041Z,22.27
2023-04-08T07:19:44.199Z,23.00
2023-04-08T07:22:12.234Z,21.10
2023-04-08T07:24:43.450Z,21.07
2023-04-08T07:27:12.919Z,21.90
2023-04-08T07:29:40.960Z,21.80
2023-04-08T07:32:09.114Z,22.60
2023-04-08T07:34:37.373Z,22.27
2023-04-08T07:37:05.704Z,22.43
2023-04-08T07:39:33.753Z,22.03
2023-04-08T07:42:01.977Z,23.27
2023-04-08T07:44:31.575Z,23.20
2023-04-08T07:46:59.806Z,22.40
2023-04-08T07:49:27.956Z,23.10
2023-04-08T07:51:55.958Z,22.07
2023-04-08T07:54:24.007Z,23.53
2023-04-08T07:56:52.237Z,24.73
2023-04-08T07:59:20.220Z,23.13
2023-04-08T08:01:49.581Z,23.53
2023-04-08T08:04:18.336Z,24.47
2023-04-08T08:06:47.553Z,24.20
2023-04-08T08:09:15.720Z,22.27
2023-04-08T08:11:43.856Z,24.73
2023-04-08T08:14:13.834Z,24.00
2023-04-08T08:16:42.555Z,24.67
2023-04-08T08:19:13.942Z,24.97
2023-04-08T08:21:42.216Z,26.03
2023-04-08T08:24:10.193Z,24.93
2023-04-08T08:26:38.315Z,25.30
2023-04-08T08:29:08.943Z,26.07
2023-04-08T08:31:37.057Z,24.30
2023-04-08T08:34:05.152Z,25.43
2023-04-08T08:36:34.968Z,24.27
2023-04-08T08:39:03.115Z,25.80
2023-04-08T08:41:35.418Z,23.67
2023-04-08T08:44:04.382Z,23.00
2023-04-08T08:46:32.634Z,24.83
2023-04-08T08:49:00.906Z,23.87
2023-04-08T08:51:29.671Z,24.87
2023-04-08T08:53:59.100Z,24.60
2023-04-08T08:56:28.097Z,24.70
2023-04-08T08:58:56.136Z,23.83
2023-04-08T09:01:34.671Z,24.33
2023-04-08T09:04:15.822Z,24.93
2023-04-08T09:06:45.155Z,24.30
2023-04-08T09:09:15.058Z,23.53
2023-04-08T09:11:45.189Z,23.77
2023-04-08T09:14:26.283Z,23.83
2023-04-08T09:16:56.372Z,22.07
2023-04-08T09:19:24.377Z,22.33
2023-04-08T09:22:08.549Z,23.20
2023-04-08T09:24:39.542Z,21.03
2023-04-08T09:27:07.640Z,21.30
2023-04-08T09:29:39.656Z,22.77
2023-04-08T09:32:08.163Z,21.93
2023-04-08T09:34:36.697Z,21.80
2023-04-08T09:37:04.694Z,20.30
2023-04-08T09:39:32.601Z,22.70
2023-04-08T09:42:03.833Z,22.67
2023-04-08T09:44:34.606Z,21.93
2023-04-08T09:47:10.092Z,23.97
2023-04-08T09:49:43.416Z,24.63
2023-04-08T09:52:14.814Z,23.43
2023-04-08T09:54:49.203Z,22.77
2023-04-08T09:57:26.594Z,21.40
2023-04-08T10:00:08.968Z,21.13
2023-04-08T10:02:46.821Z,20.27
2023-04-08T10:05:16.133Z,20.23
2023-04-08T10:07:44.195Z,19.30
2023-04-08T10:10:12.474Z,18.57
2023-04-08T10:12:42.088Z,18.87
2023-04-08T10:15:30.486Z,18.60
2023-04-08T10:18:37.814Z,18.03
2023-04-08T10:21:06.087Z,18.23
2023-04-08T10:23:56.815Z,17.43
2023-04-08T10:26:35.946Z,16.37
2023-04-08T10:29:42.762Z,17.13
2023-04-08T10:32:29.785Z,15.87
2023-04-08T10:34:58.153Z,17.20
2023-04-08T10:37:26.216Z,18.23
2023-04-08T10:39:55.828Z,17.63
2023-04-08T10:42:29.562Z,18.10
2023-04-08T10:45:03.066Z,18.70
2023-04-08T10:47:32.414Z,17.63
2023-04-08T10:50:00.930Z,18.80
2023-04-08T10:52:29.221Z,17.97
2023-04-08T10:54:57.255Z,18.50
2023-04-08T10:57:25.790Z,18.70
2023-04-08T10:59:53.738Z,18.13
2023-04-08T11:02:21.773Z,18.70
2023-04-08T11:04:51.348Z,16.47
2023-04-08T11:07:21.736Z,16.50
2023-04-08T11:09:50.789Z,16.53
2023-04-08T11:12:19.659Z,15.70
2023-04-08T11:14:49.593Z,15.10
2023-04-08T11:17:17.828Z,16.10
2023-04-08T11:19:45.886Z,16.97
2023-04-08T11:22:15.227Z,16.83
2023-04-08T11:24:44.151Z,16.27
2023-04-08T11:27:12.164Z,16.07
2023-04-08T11:29:40.912Z,15.10
2023-04-08T11:32:09.926Z,15.93
2023-04-08T11:34:41.770Z,15.97
2023-04-08T11:37:09.732Z,15.60
2023-04-08T11:39:44.395Z,13.93
2023-04-08T11:42:27.777Z,13.77
2023-04-08T11:44:55.817Z,14.50
2023-04-08T11:47:24.060Z,13.73
2023-04-08T11:49:52.104Z,14.20
2023-04-08T11:52:20.071Z,13.63
2023-04-08T11:54:50.090Z,13.17
2023-04-08T11:57:30.493Z,14.30
2023-04-08T11:59:58.547Z,13.27
2023-04-08T12:02:26.711Z,12.80
2023-04-08T12:04:54.765Z,12.37
2023-04-08T12:07:22.720Z,12.47
2023-04-08T12:09:51.967Z,13.87
2023-04-08T12:12:19.993Z,12.90
2023-04-08T12:14:47.935Z,13.67
2023-04-08T12:17:16.035Z,12.67
2023-04-08T12:19:44.053Z,12.37
2023-04-08T12:22:12.305Z,10.50
2023-04-08T12:24:40.338Z,10.17
2023-04-08T12:27:09.770Z,10.03
2023-04-08T12:29:37.724Z,10.97
2023-04-08T12:32:05.736Z,10.53
2023-04-08T12:34:34.213Z,11.53
2023-04-08T12:37:02.454Z,11.10
2023-04-08T12:39:30.468Z,10.60
2023-04-08T12:41:59.460Z,10.13
2023-04-08T12:44:28.921Z,10.18
2023-04-08T12:46:58.274Z,10.83
2023-04-08T12:49:28.020Z,10.48
2023-04-08T12:51:56.026Z,9.15
2023-04-08T12:54:23.909Z,9.57
2023-04-08T12:56:51.809Z,9.48
2023-04-08T12:59:19.876Z,9.63
2023-04-08T13:01:49.188Z,8.97
2023-04-08T13:04:17.178Z,9.23
2023-04-08T13:06:45.527Z,8.73
2023-04-08T13:09:15.080Z,9.43
2023-04-08T13:11:42.990Z,8.67
2023-04-08T13:14:11.174Z,9.50
2023-04-08T13:16:39.287Z,8.57
2023-04-08T13:19:08.635Z,8.97
2023-04-08T13:21:36.761Z,9.07
2023-04-08T13:24:05.068Z,8.90
2023-04-08T13:26:33.047Z,8.93
2023-04-08T13:29:01.395Z,8.60
2023-04-08T13:31:29.584Z,8.90
2023-04-08T13:33:58.355Z,8.27
2023-04-08T13:36:28.480Z,10.23
2023-04-08T13:38:56.658Z,10.27
2023-04-08T13:41:25.554Z,9.47
2023-04-08T13:43:53.727Z,10.23
2023-04-08T13:46:21.814Z,9.60
2023-04-08T13:48:50.315Z,10.20
2023-04-08T13:51:18.522Z,10.02
2023-04-08T13:53:47.991Z,10.88
2023-04-08T13:56:16.026Z,10.00
2023-04-08T13:58:46.172Z,9.73
2023-04-08T14:01:18.368Z,10.07
2023-04-08T14:03:46.562Z,8.45
2023-04-08T14:06:14.473Z,10.20
2023-04-08T14:08:42.901Z,9.85
2023-04-08T14:11:12.251Z,9.05
2023-04-08T14:13:40.361Z,9.35
2023-04-08T14:16:08.535Z,9.45
2023-04-08T14:18:36.616Z,9.07
2023-04-08T14:21:05.380Z,9.35
2023-04-08T14:23:33.345Z,8.90
2023-04-08T14:26:01.596Z,9.18
2023-04-08T14:28:30.941Z,9.40
2023-04-08T14:30:59.012Z,8.57
2023-04-08T14:33:27.196Z,8.65
2023-04-08T14:35:55.534Z,8.93
2023-04-08T14:38:23.442Z,9.13
2023-04-08T14:40:52.355Z,8.98
2023-04-08T14:43:20.624Z,9.05
2023-04-08T14:45:51.306Z,10.20
2023-04-08T14:48:19.542Z,9.45
2023-04-08T14:50:47.474Z,10.00
2023-04-08T14:53:15.496Z,9.15
2023-04-08T14:55:43.402Z,9.13
2023-04-08T14:58:11.387Z,9.40
2023-04-08T15:00:44.121Z,9.10
2023-04-08T15:03:13.588Z,9.73
2023-04-08T15:05:42.708Z,9.10
2023-04-08T15:08:10.847Z,8.68
2023-04-08T15:10:39.001Z,8.85
2023-04-08T15:13:07.292Z,9.55
2023-04-08T15:15:35.365Z,9.20
2023-04-08T15:18:03.421Z,9.88
2023-04-08T15:20:32.799Z,9.93
2023-04-08T15:23:00.724Z,9.20
2023-04-08T15:25:28.685Z,9.88
2023-04-08T15:27:57.282Z,10.00
2023-04-08T15:30:25.568Z,9.65
2023-04-08T15:32:55.602Z,9.07
2023-04-08T15:35:24.885Z,10.20
2023-04-08T15:37:54.252Z,9.98
2023-04-08T15:40:22.357Z,9.25
2023-04-08T15:42:50.593Z,9.52
2023-04-08T15:45:18.667Z,9.52
2023-04-08T15:47:48.664Z,9.38
2023-04-08T15:50:17.304Z,10.25
2023-04-08T15:52:45.577Z,10.27
2023-04-08T15:55:15.160Z,10.18
2023-04-08T15:57:43.190Z,10.15
2023-04-08T16:00:13.197Z,10.18
2023-04-08T16:02:42.516Z,10.00
2023-04-08T16:05:12.410Z,10.15
2023-04-08T16:07:42.038Z,10.25
2023-04-08T16:10:10.262Z,10.13
2023-04-08T16:12:39.679Z,10.48
2023-04-08T16:15:08.514Z,10.45
2023-04-08T16:17:36.501Z,10.13
2023-04-08T16:20:04.936Z,10.50
2023-04-08T16:22:32.950Z,10.68
2023-04-08T16:25:01.233Z,10.95
2023-04-08T16:27:29.221Z,11.30
2023-04-08T16:29:58.513Z,10.43
2023-04-08T16:32:26.793Z,11.63
2023-04-08T16:34:54.714Z,10.75
2023-04-08T16:37:22.615Z,10.65
2023-04-08T16:39:50.570Z,10.93
2023-04-08T16:42:19.110Z,11.13
2023-04-08T16:44:47.300Z,11.57
2023-04-08T16:47:16.662Z,11.63
2023-04-08T16:49:44.604Z,12.10
2023-04-08T16:52:15.051Z,11.57
2023-04-08T16:54:44.315Z,12.13
2023-04-08T16:57:12.286Z,11.63
2023-04-08T16:59:40.370Z,10.73
2023-04-08T17:02:08.855Z,12.25
2023-04-08T17:04:38.210Z,12.02
2023-04-08T17:07:06.582Z,10.95
2023-04-08T17:09:34.703Z,11.23
2023-04-08T17:12:03.131Z,10.93
2023-04-08T17:14:31.203Z,10.77
2023-04-08T17:16:59.101Z,10.48
2023-04-08T17:19:27.437Z,11.05
2023-04-08T17:21:56.726Z,11.23
2023-04-08T17:24:24.642Z,10.85
2023-04-08T17:26:52.625Z,11.07
2023-04-08T17:29:20.847Z,10.88
2023-04-08T17:31:48.833Z,11.70
2023-04-08T17:34:16.970Z,11.95
2023-04-08T17:36:45.891Z,12.18
2023-04-08T17:39:16.290Z,13.02
2023-04-08T17:41:45.813Z,13.95
2023-04-08T17:44:14.034Z,13.73
2023-04-08T17:46:42.029Z,15.43
2023-04-08T17:49:11.465Z,14.30
2023-04-08T17:51:39.724Z,14.55
2023-04-08T17:54:07.608Z,14.50
2023-04-08T17:56:36.904Z,14.63
2023-04-08T17:59:04.845Z,13.88
2023-04-08T18:01:33.018Z,13.27
2023-04-08T18:04:01.158Z,13.97
2023-04-08T18:06:29.312Z,13.00
2023-04-08T18:08:57.708Z,13.47
2023-04-08T18:11:27.201Z,13.33
2023-04-08T18:13:56.457Z,12.87
2023-04-08T18:16:24.429Z,12.40
2023-04-08T18:18:52.707Z,12.60
2023-04-08T18:21:22.027Z,11.65
2023-04-08T18:23:50.943Z,10.60
2023-04-08T18:26:19.329Z,10.67
2023-04-08T18:28:47.217Z,10.63
2023-04-08T18:31:16.566Z,10.23
2023-04-08T18:33:44.576Z,9.77
2023-04-08T18:36:13.833Z,12.18
2023-04-08T18:38:42.024Z,10.97
2023-04-08T18:41:10.076Z,9.80
2023-04-08T18:43:38.036Z,10.63
2023-04-08T18:46:05.954Z,10.23
2023-04-08T18:48:35.775Z,10.60
2023-04-08T18:51:03.769Z,10.47
2023-04-08T18:53:34.700Z,11.33
2023-04-08T18:56:02.813Z,12.43
2023-04-08T18:58:31.496Z,12.33
2023-04-08T19:00:59.470Z,11.60
2023-04-08T19:03:27.479Z,10.97
2023-04-08T19:05:56.941Z,11.50
2023-04-08T19:08:24.838Z,10.50
2023-04-08T19:10:52.939Z,11.03
2023-04-08T19:13:22.152Z,12.03
2023-04-08T19:15:50.205Z,11.30
2023-04-08T19:18:18.235Z,10.93
2023-04-08T19:20:46.916Z,11.87
2023-04-08T19:23:18.241Z,11.57
2023-04-08T19:25:47.264Z,11.60
2023-04-08T19:28:15.380Z,12.57
2023-04-08T19:30:43.288Z,11.77
2023-04-08T19:33:11.216Z,12.40
2023-04-08T19:35:39.421Z,12.00
2023-04-08T19:38:08.292Z,12.47
2023-04-08T19:40:38.067Z,12.67
2023-04-08T19:43:06.384Z,11.73
2023-04-08T19:45:34.528Z,12.40
2023-04-08T19:48:02.470Z,12.53
2023-04-08T19:50:30.401Z,12.83
2023-04-08T19:52:58.392Z,11.67
2023-04-08T19:55:26.646Z,12.97
2023-04-08T19:57:56.002Z,12.87
2023-04-08T20:00:25.004Z,12.90
2023-04-08T20:02:55.339Z,12.70
2023-04-08T20:05:23.562Z,12.70
2023-04-08T20:07:51.467Z,13.20
2023-04-08T20:10:20.515Z,13.23
2023-04-08T20:12:48.660Z,13.47
2023-04-08T20:15:24.554Z,13.07
2023-04-08T20:17:54.235Z,13.43
2023-04-08T20:20:22.771Z,13.17
2023-04-08T20:22:50.949Z,14.00
2023-04-08T20:25:19.140Z,12.83
2023-04-08T20:27:47.130Z,14.10
2023-04-08T20:30:15.162Z,13.47
2023-04-08T20:32:44.531Z,13.67
2023-04-08T20:35:13.401Z,14.07
2023-04-08T20:37:41.654Z,14.60
2023-04-08T20:40:10.612Z,14.13
2023-04-08T20:42:38.854Z,14.70
2023-04-08T20:45:08.054Z,14.20
2023-04-08T20:47:36.058Z,15.00
2023-04-08T20:50:06.474Z,15.07
2023-04-08T20:52:34.953Z,15.47
2023-04-08T20:55:02.876Z,15.10
2023-04-08T20:57:31.183Z,15.77
2023-04-08T20:59:59.293Z,15.83
2023-04-08T21:02:27.360Z,15.47
2023-04-08T21:04:55.348Z,15.63
2023-04-08T21:07:25.921Z,15.70
2023-04-08T21:09:53.994Z,14.47
2023-04-08T21:12:22.212Z,16.67
2023-04-08T21:14:50.875Z,15.40
2023-04-08T21:17:18.795Z,16.20
2023-04-08T21:19:47.000Z,16.50
2023-04-08T21:22:16.269Z,15.83
2023-04-08T21:24:45.596Z,16.53
2023-04-08T21:27:13.540Z,16.57
2023-04-08T21:29:41.646Z,17.07
2023-04-08T21:32:09.682Z,17.23
2023-04-08T21:34:37.723Z,17.37
2023-04-08T21:37:06.079Z,18.20
2023-04-08T21:39:34.093Z,17.50
2023-04-08T21:42:03.368Z,18.27
2023-04-08T21:44:31.358Z,18.73
2023-04-08T21:47:01.550Z,18.53
2023-04-08T21:49:30.689Z,19.00
2023-04-08T21:51:58.719Z,18.80
2023-04-08T21:54:26.670Z,17.83
2023-04-08T21:56:54.607Z,18.33
2023-04-08T21:59:23.924Z,18.77
2023-04-08T22:01:51.936Z,19.50
2023-04-08T22:04:20.441Z,19.90
2023-04-08T22:06:49.644Z,19.43
2023-04-08T22:09:17.775Z,19.33
2023-04-08T22:11:45.949Z,19.30
2023-04-08T22:14:15.600Z,19.63
2023-04-08T22:16:45.300Z,19.60
2023-04-08T22:19:13.287Z,20.27
2023-04-08T22:21:41.337Z,19.33
2023-04-08T22:24:09.288Z,19.83
2023-04-08T22:26:37.278Z,19.80
2023-04-08T22:29:05.728Z,19.97
2023-04-08T22:31:33.648Z,19.43
2023-04-08T22:34:02.996Z,19.27
2023-04-08T22:36:31.046Z,19.23
2023-04-08T22:38:59.011Z,19.23
2023-04-08T22:41:27.070Z,20.00
2023-04-08T22:43:55.111Z,19.77
2023-04-08T22:46:23.106Z,20.80
2023-04-08T22:48:51.358Z,20.23
2023-04-08T22:51:20.946Z,20.23
2023-04-08T22:53:48.893Z,19.30
2023-04-08T22:56:16.852Z,20.17
2023-04-08T22:58:44.774Z,19.53
2023-04-08T23:01:13.695Z,20.30
2023-04-08T23:03:42.165Z,20.37
2023-04-08T23:06:10.229Z,19.53
2023-04-08T23:08:39.794Z,19.67
2023-04-08T23:11:08.119Z,20.90
2023-04-08T23:13:36.281Z,20.40
2023-04-08T23:16:04.312Z,20.50
2023-04-08T23:18:32.315Z,21.07
2023-04-08T23:21:00.261Z,20.00
2023-04-08T23:23:28.250Z,20.97
2023-04-08T23:25:57.583Z,20.47
2023-04-08T23:28:25.555Z,19.77
2023-04-08T23:30:54.206Z,20.33
2023-04-08T23:33:22.197Z,19.27
2023-04-08T23:35:50.169Z,19.80
2023-04-08T23:38:18.105Z,20.50
2023-04-08T23:40:46.102Z,20.97
2023-04-08T23:43:15.490Z,19.57
2023-04-08T23:45:43.531Z,19.10
2023-04-08T23:48:11.603Z,20.03
2023-04-08T23:50:39.528Z,19.73
2023-04-08T23:53:07.447Z,19.10
2023-04-08T23:55:35.473Z,19.37
2023-04-08T23:58:03.352Z,19.33
